sensor_id;sensor_type;location;lat;lon;timestamp;P1;durP1;ratioP1;P2;durP2;ratioP2
57113;SDS011;42994;51.606;9.988;2023-06-01T00:00:10;4.45;;;2.58;;
57113;SDS011;42994;51.606;9.988;2023-06-01T00:02:40;5.88;;;2.63;;
57113;SDS011;42994;51.606;9.988;2023-06-01T00:05:08;7.80;;;3.92;;
57113;SDS011;42994;51.606;9.988;2023-06-01T00:07:35;6.75;;;3.05;;
57113;SDS011;42994;51.606;9.988;2023-06-01T00:10:02;4.40;;;2.30;;
57113;SDS011;42994;51.606;9.988;2023-06-01T00:12:29;8.75;;;3.17;;
57113;SDS011;42994;51.606;9.988;2023-06-01T00:14:55;6.55;;;3.17;;
57113;SDS011;42994;51.606;9.988;2023-06-01T00:17:22;5.97;;;2.85;;
57113;SDS011;42994;51.606;9.988;2023-06-01T00:19:49;4.82;;;2.17;;
57113;SDS011;42994;51.606;9.988;2023-06-01T00:22:19;3.95;;;2.40;;
57113;SDS011;42994;51.606;9.988;2023-06-01T00:24:46;10.68;;;3.20;;
57113;SDS011;42994;51.606;9.988;2023-06-01T00:27:13;5.95;;;3.10;;
57113;SDS011;42994;51.606;9.988;2023-06-01T00:29:39;5.13;;;3.03;;
57113;SDS011;42994;51.606;9.988;2023-06-01T00:32:06;5.25;;;2.50;;
57113;SDS011;42994;51.606;9.988;2023-06-01T00:34:33;9.65;;;3.47;;
57113;SDS011;42994;51.606;9.988;2023-06-01T00:37:00;4.18;;;2.95;;
57113;SDS011;42994;51.606;9.988;2023-06-01T00:39:28;6.28;;;3.03;;
57113;SDS011;42994;51.606;9.988;2023-06-01T00:41:54;5.75;;;2.80;;
57113;SDS011;42994;51.606;9.988;2023-06-01T00:44:21;7.57;;;2.65;;
57113;SDS011;42994;51.606;9.988;2023-06-01T00:46:48;6.22;;;2.63;;
57113;SDS011;42994;51.606;9.988;2023-06-01T00:49:16;6.45;;;3.28;;
57113;SDS011;42994;51.606;9.988;2023-06-01T00:51:43;5.32;;;2.40;;
57113;SDS011;42994;51.606;9.988;2023-06-01T00:54:10;8.15;;;2.90;;
57113;SDS011;42994;51.606;9.988;2023-06-01T00:56:38;3.75;;;3.15;;
57113;SDS011;42994;51.606;9.988;2023-06-01T00:59:04;6.50;;;3.20;;
57113;SDS011;42994;51.606;9.988;2023-06-01T01:01:31;6.65;;;3.58;;
57113;SDS011;42994;51.606;9.988;2023-06-01T01:04:00;6.50;;;3.40;;
57113;SDS011;42994;51.606;9.988;2023-06-01T01:06:28;9.10;;;3.78;;
57113;SDS011;42994;51.606;9.988;2023-06-01T01:09:12;4.97;;;2.97;;
57113;SDS011;42994;51.606;9.988;2023-06-01T01:11:50;5.93;;;3.05;;
57113;SDS011;42994;51.606;9.988;2023-06-01T01:14:23;3.80;;;2.90;;
57113;SDS011;42994;51.606;9.988;2023-06-01T01:16:56;4.45;;;3.08;;
57113;SDS011;42994;51.606;9.988;2023-06-01T01:19:29;4.68;;;2.95;;
57113;SDS011;42994;51.606;9.988;2023-06-01T01:22:13;8.60;;;3.40;;
57113;SDS011;42994;51.606;9.988;2023-06-01T01:24:54;5.45;;;2.85;;
57113;SDS011;42994;51.606;9.988;2023-06-01T01:27:38;4.78;;;2.70;;
57113;SDS011;42994;51.606;9.988;2023-06-01T01:30:10;5.15;;;3.15;;
57113;SDS011;42994;51.606;9.988;2023-06-01T01:32:37;8.40;;;3.15;;
57113;SDS011;42994;51.606;9.988;2023-06-01T01:35:08;7.43;;;3.33;;
57113;SDS011;42994;51.606;9.988;2023-06-01T01:37:36;4.72;;;3.15;;
57113;SDS011;42994;51.606;9.988;2023-06-01T01:40:03;4.95;;;2.90;;
57113;SDS011;42994;51.606;9.988;2023-06-01T01:42:30;10.23;;;3.78;;
57113;SDS011;42994;51.606;9.988;2023-06-01T01:44:57;4.20;;;3.08;;
57113;SDS011;42994;51.606;9.988;2023-06-01T01:47:27;8.40;;;3.58;;
57113;SDS011;42994;51.606;9.988;2023-06-01T01:50:03;4.65;;;3.20;;
57113;SDS011;42994;51.606;9.988;2023-06-01T01:52:37;10.40;;;3.70;;
57113;SDS011;42994;51.606;9.988;2023-06-01T01:55:06;4.97;;;3.67;;
57113;SDS011;42994;51.606;9.988;2023-06-01T01:57:34;7.40;;;4.35;;
57113;SDS011;42994;51.606;9.988;2023-06-01T02:00:02;7.22;;;3.63;;
57113;SDS011;42994;51.606;9.988;2023-06-01T02:02:39;6.10;;;4.20;;
57113;SDS011;42994;51.606;9.988;2023-06-01T02:05:06;5.72;;;3.63;;
57113;SDS011;42994;51.606;9.988;2023-06-01T02:07:33;5.30;;;3.35;;
57113;SDS011;42994;51.606;9.988;2023-06-01T02:10:02;11.63;;;4.72;;
57113;SDS011;42994;51.606;9.988;2023-06-01T02:12:30;8.40;;;3.85;;
57113;SDS011;42994;51.606;9.988;2023-06-01T02:14:57;8.82;;;4.50;;
57113;SDS011;42994;51.606;9.988;2023-06-01T02:17:24;18.35;;;4.90;;
57113;SDS011;42994;51.606;9.988;2023-06-01T02:19:53;7.68;;;3.67;;
57113;SDS011;42994;51.606;9.988;2023-06-01T02:22:20;8.18;;;4.28;;
57113;SDS011;42994;51.606;9.988;2023-06-01T02:24:46;6.43;;;3.80;;
57113;SDS011;42994;51.606;9.988;2023-06-01T02:27:13;8.80;;;4.15;;
57113;SDS011;42994;51.606;9.988;2023-06-01T02:29:40;6.60;;;4.40;;
57113;SDS011;42994;51.606;9.988;2023-06-01T02:32:06;6.85;;;4.30;;
57113;SDS011;42994;51.606;9.988;2023-06-01T02:34:34;8.50;;;3.95;;
57113;SDS011;42994;51.606;9.988;2023-06-01T02:37:03;8.23;;;4.55;;
57113;SDS011;42994;51.606;9.988;2023-06-01T02:39:30;7.93;;;3.85;;
57113;SDS011;42994;51.606;9.988;2023-06-01T02:41:56;10.82;;;5.35;;
57113;SDS011;42994;51.606;9.988;2023-06-01T02:44:23;12.98;;;5.63;;
57113;SDS011;42994;51.606;9.988;2023-06-01T02:46:49;7.95;;;5.03;;
57113;SDS011;42994;51.606;9.988;2023-06-01T02:49:16;6.53;;;5.07;;
57113;SDS011;42994;51.606;9.988;2023-06-01T02:51:44;7.85;;;5.07;;
57113;SDS011;42994;51.606;9.988;2023-06-01T02:54:19;5.75;;;4.22;;
57113;SDS011;42994;51.606;9.988;2023-06-01T02:56:45;6.03;;;4.63;;
57113;SDS011;42994;51.606;9.988;2023-06-01T02:59:31;8.57;;;4.93;;
57113;SDS011;42994;51.606;9.988;2023-06-01T03:02:02;12.30;;;5.40;;
57113;SDS011;42994;51.606;9.988;2023-06-01T03:04:30;10.18;;;6.18;;
57113;SDS011;42994;51.606;9.988;2023-06-01T03:06:57;11.18;;;6.20;;
57113;SDS011;42994;51.606;9.988;2023-06-01T03:09:48;11.52;;;6.60;;
57113;SDS011;42994;51.606;9.988;2023-06-01T03:12:36;16.08;;;9.40;;
57113;SDS011;42994;51.606;9.988;2023-06-01T03:15:03;25.88;;;12.75;;
57113;SDS011;42994;51.606;9.988;2023-06-01T03:17:30;23.90;;;13.88;;
57113;SDS011;42994;51.606;9.988;2023-06-01T03:19:59;27.00;;;15.13;;
57113;SDS011;42994;51.606;9.988;2023-06-01T03:22:27;17.42;;;11.63;;
57113;SDS011;42994;51.606;9.988;2023-06-01T03:24:55;23.35;;;13.75;;
57113;SDS011;42994;51.606;9.988;2023-06-01T03:27:27;22.25;;;14.30;;
57113;SDS011;42994;51.606;9.988;2023-06-01T03:29:54;26.50;;;12.73;;
57113;SDS011;42994;51.606;9.988;2023-06-01T03:32:20;28.35;;;17.10;;
57113;SDS011;42994;51.606;9.988;2023-06-01T03:34:49;30.85;;;15.88;;
57113;SDS011;42994;51.606;9.988;2023-06-01T03:37:15;34.35;;;16.35;;
57113;SDS011;42994;51.606;9.988;2023-06-01T03:39:42;35.55;;;19.98;;
57113;SDS011;42994;51.606;9.988;2023-06-01T03:42:12;26.60;;;16.52;;
57113;SDS011;42994;51.606;9.988;2023-06-01T03:44:39;28.15;;;14.88;;
57113;SDS011;42994;51.606;9.988;2023-06-01T03:47:06;30.88;;;15.82;;
57113;SDS011;42994;51.606;9.988;2023-06-01T03:49:33;37.92;;;17.02;;
57113;SDS011;42994;51.606;9.988;2023-06-01T03:52:03;29.65;;;18.15;;
57113;SDS011;42994;51.606;9.988;2023-06-01T03:54:31;36.50;;;18.38;;
57113;SDS011;42994;51.606;9.988;2023-06-01T03:56:58;33.85;;;17.88;;
57113;SDS011;42994;51.606;9.988;2023-06-01T03:59:26;28.60;;;16.38;;
57113;SDS011;42994;51.606;9.988;2023-06-01T04:01:53;22.45;;;15.50;;
57113;SDS011;42994;51.606;9.988;2023-06-01T04:04:20;29.45;;;17.70;;
57113;SDS011;42994;51.606;9.988;2023-06-01T04:06:53;38.42;;;20.38;;
57113;SDS011;42994;51.606;9.988;2023-06-01T04:09:27;30.10;;;18.02;;
57113;SDS011;42994;51.606;9.988;2023-06-01T04:11:55;27.92;;;18.08;;
57113;SDS011;42994;51.606;9.988;2023-06-01T04:14:21;33.55;;;20.02;;
57113;SDS011;42994;51.606;9.988;2023-06-01T04:16:49;37.47;;;20.98;;
57113;SDS011;42994;51.606;9.988;2023-06-01T04:19:16;34.47;;;21.35;;
57113;SDS011;42994;51.606;9.988;2023-06-01T04:21:43;32.58;;;19.48;;
57113;SDS011;42994;51.606;9.988;2023-06-01T04:24:13;38.88;;;20.75;;
57113;SDS011;42994;51.606;9.988;2023-06-01T04:26:40;32.65;;;18.08;;
57113;SDS011;42994;51.606;9.988;2023-06-01T04:29:07;36.75;;;20.60;;
57113;SDS011;42994;51.606;9.988;2023-06-01T04:31:37;43.05;;;21.73;;
57113;SDS011;42994;51.606;9.988;2023-06-01T04:34:05;40.10;;;21.23;;
57113;SDS011;42994;51.606;9.988;2023-06-01T04:36:33;32.50;;;19.38;;
57113;SDS011;42994;51.606;9.988;2023-06-01T04:39:04;29.10;;;17.48;;
57113;SDS011;42994;51.606;9.988;2023-06-01T04:41:31;32.70;;;18.27;;
57113;SDS011;42994;51.606;9.988;2023-06-01T04:44:00;35.67;;;19.17;;
57113;SDS011;42994;51.606;9.988;2023-06-01T04:46:30;33.75;;;17.67;;
57113;SDS011;42994;51.606;9.988;2023-06-01T04:48:59;32.75;;;18.15;;
57113;SDS011;42994;51.606;9.988;2023-06-01T04:51:28;28.55;;;18.45;;
57113;SDS011;42994;51.606;9.988;2023-06-01T04:53:56;33.28;;;19.17;;
57113;SDS011;42994;51.606;9.988;2023-06-01T04:56:24;29.05;;;18.08;;
57113;SDS011;42994;51.606;9.988;2023-06-01T04:58:53;31.52;;;19.25;;
57113;SDS011;42994;51.606;9.988;2023-06-01T05:01:21;28.35;;;16.35;;
57113;SDS011;42994;51.606;9.988;2023-06-01T05:03:51;36.20;;;19.88;;
57113;SDS011;42994;51.606;9.988;2023-06-01T05:06:21;33.42;;;18.67;;
57113;SDS011;42994;51.606;9.988;2023-06-01T05:08:49;36.20;;;17.88;;
57113;SDS011;42994;51.606;9.988;2023-06-01T05:11:17;29.17;;;18.25;;
57113;SDS011;42994;51.606;9.988;2023-06-01T05:13:43;30.30;;;18.58;;
57113;SDS011;42994;51.606;9.988;2023-06-01T05:16:11;36.45;;;21.00;;
57113;SDS011;42994;51.606;9.988;2023-06-01T05:18:38;36.38;;;22.23;;
57113;SDS011;42994;51.606;9.988;2023-06-01T05:21:05;35.35;;;19.58;;
57113;SDS011;42994;51.606;9.988;2023-06-01T05:23:32;34.78;;;21.05;;
57113;SDS011;42994;51.606;9.988;2023-06-01T05:26:00;33.47;;;20.65;;
57113;SDS011;42994;51.606;9.988;2023-06-01T05:28:31;35.70;;;20.23;;
57113;SDS011;42994;51.606;9.988;2023-06-01T05:30:59;28.30;;;18.90;;
57113;SDS011;42994;51.606;9.988;2023-06-01T05:33:27;36.67;;;19.95;;
57113;SDS011;42994;51.606;9.988;2023-06-01T05:35:54;34.20;;;19.88;;
57113;SDS011;42994;51.606;9.988;2023-06-01T05:38:24;32.80;;;20.80;;
57113;SDS011;42994;51.606;9.988;2023-06-01T05:40:51;35.95;;;21.05;;
57113;SDS011;42994;51.606;9.988;2023-06-01T05:43:19;33.38;;;20.00;;
57113;SDS011;42994;51.606;9.988;2023-06-01T05:45:46;34.30;;;21.33;;
57113;SDS011;42994;51.606;9.988;2023-06-01T05:48:14;35.47;;;20.90;;
57113;SDS011;42994;51.606;9.988;2023-06-01T05:50:45;41.50;;;22.50;;
57113;SDS011;42994;51.606;9.988;2023-06-01T05:53:12;35.92;;;22.42;;
57113;SDS011;42994;51.606;9.988;2023-06-01T05:55:39;39.35;;;22.98;;
57113;SDS011;42994;51.606;9.988;2023-06-01T05:58:06;38.53;;;22.38;;
57113;SDS011;42994;51.606;9.988;2023-06-01T06:00:34;36.90;;;22.90;;
57113;SDS011;42994;51.606;9.988;2023-06-01T06:03:01;35.13;;;22.65;;
57113;SDS011;42994;51.606;9.988;2023-06-01T06:05:29;38.47;;;23.00;;
57113;SDS011;42994;51.606;9.988;2023-06-01T06:07:56;44.17;;;25.17;;
57113;SDS011;42994;51.606;9.988;2023-06-01T06:10:22;42.65;;;24.80;;
57113;SDS011;42994;51.606;9.988;2023-06-01T06:12:49;38.72;;;25.10;;
57113;SDS011;42994;51.606;9.988;2023-06-01T06:15:16;43.05;;;27.38;;
57113;SDS011;42994;51.606;9.988;2023-06-01T06:17:44;44.80;;;26.58;;
57113;SDS011;42994;51.606;9.988;2023-06-01T06:20:11;47.50;;;26.83;;
57113;SDS011;42994;51.606;9.988;2023-06-01T06:22:40;43.40;;;27.67;;
57113;SDS011;42994;51.606;9.988;2023-06-01T06:25:07;41.20;;;27.02;;
57113;SDS011;42994;51.606;9.988;2023-06-01T06:27:36;38.95;;;24.23;;
57113;SDS011;42994;51.606;9.988;2023-06-01T06:30:03;43.08;;;27.02;;
57113;SDS011;42994;51.606;9.988;2023-06-01T06:32:31;46.00;;;27.52;;
57113;SDS011;42994;51.606;9.988;2023-06-01T06:35:01;46.92;;;27.70;;
57113;SDS011;42994;51.606;9.988;2023-06-01T06:37:28;44.35;;;27.83;;
57113;SDS011;42994;51.606;9.988;2023-06-01T06:39:54;45.00;;;28.75;;
57113;SDS011;42994;51.606;9.988;2023-06-01T06:42:21;42.90;;;25.98;;
57113;SDS011;42994;51.606;9.988;2023-06-01T06:44:49;46.15;;;28.17;;
57113;SDS011;42994;51.606;9.988;2023-06-01T06:47:16;46.13;;;28.65;;
57113;SDS011;42994;51.606;9.988;2023-06-01T06:49:45;43.65;;;27.70;;
57113;SDS011;42994;51.606;9.988;2023-06-01T06:52:13;50.05;;;30.52;;
57113;SDS011;42994;51.606;9.988;2023-06-01T06:54:39;48.28;;;29.27;;
57113;SDS011;42994;51.606;9.988;2023-06-01T06:57:06;47.40;;;29.35;;
57113;SDS011;42994;51.606;9.988;2023-06-01T06:59:34;45.33;;;28.67;;
57113;SDS011;42994;51.606;9.988;2023-06-01T07:02:01;41.67;;;27.65;;
57113;SDS011;42994;51.606;9.988;2023-06-01T07:04:28;34.80;;;24.17;;
57113;SDS011;42994;51.606;9.988;2023-06-01T07:06:55;34.60;;;23.70;;
57113;SDS011;42994;51.606;9.988;2023-06-01T07:09:23;43.03;;;27.58;;
57113;SDS011;42994;51.606;9.988;2023-06-01T07:11:50;37.13;;;22.75;;
57113;SDS011;42994;51.606;9.988;2023-06-01T07:14:16;36.60;;;25.35;;
57113;SDS011;42994;51.606;9.988;2023-06-01T07:16:43;40.60;;;26.40;;
57113;SDS011;42994;51.606;9.988;2023-06-01T07:19:10;40.55;;;26.20;;
57113;SDS011;42994;51.606;9.988;2023-06-01T07:21:38;41.92;;;27.08;;
57113;SDS011;42994;51.606;9.988;2023-06-01T07:24:05;31.02;;;20.52;;
57113;SDS011;42994;51.606;9.988;2023-06-01T07:26:34;35.70;;;23.75;;
57113;SDS011;42994;51.606;9.988;2023-06-01T07:29:01;36.95;;;23.58;;
57113;SDS011;42994;51.606;9.988;2023-06-01T07:31:28;30.58;;;21.10;;
57113;SDS011;42994;51.606;9.988;2023-06-01T07:33:55;33.38;;;24.15;;
57113;SDS011;42994;51.606;9.988;2023-06-01T07:36:21;36.92;;;22.52;;
57113;SDS011;42994;51.606;9.988;2023-06-01T07:38:49;35.90;;;24.10;;
57113;SDS011;42994;51.606;9.988;2023-06-01T07:41:15;38.38;;;23.88;;
57113;SDS011;42994;51.606;9.988;2023-06-01T07:43:43;38.40;;;24.05;;
57113;SDS011;42994;51.606;9.988;2023-06-01T07:46:10;37.90;;;25.08;;
57113;SDS011;42994;51.606;9.988;2023-06-01T07:48:37;36.78;;;23.73;;
57113;SDS011;42994;51.606;9.988;2023-06-01T07:51:04;36.22;;;23.92;;
57113;SDS011;42994;51.606;9.988;2023-06-01T07:53:32;35.30;;;23.13;;
57113;SDS011;42994;51.606;9.988;2023-06-01T07:55:58;34.97;;;23.10;;
57113;SDS011;42994;51.606;9.988;2023-06-01T07:58:25;33.92;;;23.15;;
57113;SDS011;42994;51.606;9.988;2023-06-01T08:00:53;33.25;;;21.88;;
57113;SDS011;42994;51.606;9.988;2023-06-01T08:03:20;32.58;;;21.95;;
57113;SDS011;42994;51.606;9.988;2023-06-01T08:05:50;27.98;;;20.67;;
57113;SDS011;42994;51.606;9.988;2023-06-01T08:08:19;31.20;;;19.95;;
57113;SDS011;42994;51.606;9.988;2023-06-01T08:10:46;30.52;;;21.23;;
57113;SDS011;42994;51.606;9.988;2023-06-01T08:13:13;29.73;;;19.85;;
57113;SDS011;42994;51.606;9.988;2023-06-01T08:15:39;29.80;;;21.13;;
57113;SDS011;42994;51.606;9.988;2023-06-01T08:18:09;27.67;;;20.17;;
57113;SDS011;42994;51.606;9.988;2023-06-01T08:20:35;29.15;;;20.02;;
57113;SDS011;42994;51.606;9.988;2023-06-01T08:23:02;25.48;;;19.70;;
57113;SDS011;42994;51.606;9.988;2023-06-01T08:25:29;28.00;;;18.30;;
57113;SDS011;42994;51.606;9.988;2023-06-01T08:27:56;30.23;;;19.45;;
57113;SDS011;42994;51.606;9.988;2023-06-01T08:30:24;30.27;;;19.60;;
57113;SDS011;42994;51.606;9.988;2023-06-01T08:32:51;29.70;;;21.17;;
57113;SDS011;42994;51.606;9.988;2023-06-01T08:35:19;32.72;;;21.02;;
57113;SDS011;42994;51.606;9.988;2023-06-01T08:37:46;26.27;;;17.80;;
57113;SDS011;42994;51.606;9.988;2023-06-01T08:40:13;27.75;;;19.30;;
57113;SDS011;42994;51.606;9.988;2023-06-01T08:42:42;26.17;;;17.90;;
57113;SDS011;42994;51.606;9.988;2023-06-01T08:45:14;26.10;;;18.08;;
57113;SDS011;42994;51.606;9.988;2023-06-01T08:47:40;26.40;;;18.10;;
57113;SDS011;42994;51.606;9.988;2023-06-01T08:50:08;23.92;;;18.83;;
57113;SDS011;42994;51.606;9.988;2023-06-01T08:52:38;28.17;;;18.45;;
57113;SDS011;42994;51.606;9.988;2023-06-01T08:55:07;25.17;;;16.33;;
57113;SDS011;42994;51.606;9.988;2023-06-01T08:57:34;26.70;;;17.98;;
57113;SDS011;42994;51.606;9.988;2023-06-01T09:00:01;23.38;;;16.13;;
57113;SDS011;42994;51.606;9.988;2023-06-01T09:02:29;24.38;;;17.10;;
57113;SDS011;42994;51.606;9.988;2023-06-01T09:04:56;26.98;;;17.05;;
57113;SDS011;42994;51.606;9.988;2023-06-01T09:07:24;23.67;;;14.75;;
57113;SDS011;42994;51.606;9.988;2023-06-01T09:09:52;22.15;;;15.00;;
57113;SDS011;42994;51.606;9.988;2023-06-01T09:12:20;22.30;;;13.77;;
57113;SDS011;42994;51.606;9.988;2023-06-01T09:14:49;27.23;;;14.35;;
57113;SDS011;42994;51.606;9.988;2023-06-01T09:17:20;18.67;;;13.20;;
57113;SDS011;42994;51.606;9.988;2023-06-01T09:19:49;18.42;;;11.63;;
57113;SDS011;42994;51.606;9.988;2023-06-01T09:22:17;19.00;;;13.10;;
57113;SDS011;42994;51.606;9.988;2023-06-01T09:24:50;20.48;;;12.30;;
57113;SDS011;42994;51.606;9.988;2023-06-01T09:27:23;18.50;;;12.85;;
57113;SDS011;42994;51.606;9.988;2023-06-01T09:29:54;22.13;;;12.27;;
57113;SDS011;42994;51.606;9.988;2023-06-01T09:32:21;19.70;;;11.87;;
57113;SDS011;42994;51.606;9.988;2023-06-01T09:34:49;16.80;;;11.70;;
57113;SDS011;42994;51.606;9.988;2023-06-01T09:37:15;16.55;;;11.63;;
57113;SDS011;42994;51.606;9.988;2023-06-01T09:39:43;19.15;;;11.57;;
57113;SDS011;42994;51.606;9.988;2023-06-01T09:42:11;18.23;;;10.95;;
57113;SDS011;42994;51.606;9.988;2023-06-01T09:44:38;20.40;;;11.18;;
57113;SDS011;42994;51.606;9.988;2023-06-01T09:47:05;24.15;;;11.73;;
57113;SDS011;42994;51.606;9.988;2023-06-01T09:49:35;17.02;;;10.82;;
57113;SDS011;42994;51.606;9.988;2023-06-01T09:52:13;14.95;;;10.32;;
57113;SDS011;42994;51.606;9.988;2023-06-01T09:54:42;22.27;;;11.15;;
57113;SDS011;42994;51.606;9.988;2023-06-01T09:57:12;16.00;;;11.88;;
57113;SDS011;42994;51.606;9.988;2023-06-01T09:59:40;15.32;;;11.00;;
57113;SDS011;42994;51.606;9.988;2023-06-01T10:02:09;19.38;;;11.05;;
57113;SDS011;42994;51.606;9.988;2023-06-01T10:04:39;18.98;;;10.82;;
57113;SDS011;42994;51.606;9.988;2023-06-01T10:07:08;16.42;;;9.88;;
57113;SDS011;42994;51.606;9.988;2023-06-01T10:09:36;16.13;;;11.23;;
57113;SDS011;42994;51.606;9.988;2023-06-01T10:12:05;16.73;;;11.05;;
57113;SDS011;42994;51.606;9.988;2023-06-01T10:14:35;18.25;;;10.30;;
57113;SDS011;42994;51.606;9.988;2023-06-01T10:17:03;14.18;;;10.30;;
57113;SDS011;42994;51.606;9.988;2023-06-01T10:19:30;15.38;;;11.02;;
57113;SDS011;42994;51.606;9.988;2023-06-01T10:22:01;16.80;;;11.15;;
57113;SDS011;42994;51.606;9.988;2023-06-01T10:24:29;21.15;;;11.18;;
57113;SDS011;42994;51.606;9.988;2023-06-01T10:26:59;22.58;;;11.93;;
57113;SDS011;42994;51.606;9.988;2023-06-01T10:29:31;16.05;;;10.70;;
57113;SDS011;42994;51.606;9.988;2023-06-01T10:32:00;18.13;;;11.00;;
57113;SDS011;42994;51.606;9.988;2023-06-01T10:34:36;17.27;;;9.65;;
57113;SDS011;42994;51.606;9.988;2023-06-01T10:37:14;13.55;;;9.77;;
57113;SDS011;42994;51.606;9.988;2023-06-01T10:39:43;19.08;;;10.77;;
57113;SDS011;42994;51.606;9.988;2023-06-01T10:45:03;15.00;;;9.55;;
57113;SDS011;42994;51.606;9.988;2023-06-01T10:47:45;15.35;;;10.35;;
57113;SDS011;42994;51.606;9.988;2023-06-01T10:50:14;14.73;;;9.88;;
57113;SDS011;42994;51.606;9.988;2023-06-01T10:52:42;15.63;;;9.23;;
57113;SDS011;42994;51.606;9.988;2023-06-01T10:55:19;15.63;;;9.20;;
57113;SDS011;42994;51.606;9.988;2023-06-01T10:57:47;18.20;;;10.02;;
57113;SDS011;42994;51.606;9.988;2023-06-01T11:00:15;11.32;;;9.27;;
57113;SDS011;42994;51.606;9.988;2023-06-01T11:02:49;18.55;;;8.30;;
57113;SDS011;42994;51.606;9.988;2023-06-01T11:05:37;13.70;;;8.65;;
57113;SDS011;42994;51.606;9.988;2023-06-01T11:08:09;13.63;;;8.77;;
57113;SDS011;42994;51.606;9.988;2023-06-01T11:11:13;14.52;;;8.98;;
57113;SDS011;42994;51.606;9.988;2023-06-01T11:13:41;11.30;;;8.73;;
57113;SDS011;42994;51.606;9.988;2023-06-01T11:19:03;14.98;;;8.98;;
57113;SDS011;42994;51.606;9.988;2023-06-01T11:21:35;13.32;;;8.63;;
57113;SDS011;42994;51.606;9.988;2023-06-01T11:24:05;11.85;;;7.65;;
57113;SDS011;42994;51.606;9.988;2023-06-01T11:26:35;16.95;;;8.32;;
57113;SDS011;42994;51.606;9.988;2023-06-01T11:29:04;13.80;;;8.52;;
57113;SDS011;42994;51.606;9.988;2023-06-01T11:31:33;14.40;;;7.88;;
57113;SDS011;42994;51.606;9.988;2023-06-01T11:34:03;12.50;;;7.45;;
57113;SDS011;42994;51.606;9.988;2023-06-01T11:36:35;12.50;;;7.10;;
57113;SDS011;42994;51.606;9.988;2023-06-01T11:39:03;12.55;;;7.30;;
57113;SDS011;42994;51.606;9.988;2023-06-01T11:41:33;11.38;;;7.35;;
57113;SDS011;42994;51.606;9.988;2023-06-01T11:44:00;10.90;;;8.55;;
57113;SDS011;42994;51.606;9.988;2023-06-01T11:46:27;10.30;;;6.60;;
57113;SDS011;42994;51.606;9.988;2023-06-01T11:49:01;10.75;;;6.63;;
57113;SDS011;42994;51.606;9.988;2023-06-01T11:51:31;10.10;;;6.80;;
57113;SDS011;42994;51.606;9.988;2023-06-01T11:54:00;18.67;;;8.45;;
57113;SDS011;42994;51.606;9.988;2023-06-01T11:56:28;10.55;;;6.72;;
57113;SDS011;42994;51.606;9.988;2023-06-01T11:58:59;8.38;;;7.18;;
57113;SDS011;42994;51.606;9.988;2023-06-01T12:01:26;9.60;;;6.43;;
57113;SDS011;42994;51.606;9.988;2023-06-01T12:03:54;9.18;;;5.35;;
57113;SDS011;42994;51.606;9.988;2023-06-01T12:06:22;5.93;;;5.32;;
57113;SDS011;42994;51.606;9.988;2023-06-01T12:08:51;10.23;;;6.40;;
57113;SDS011;42994;51.606;9.988;2023-06-01T12:11:20;8.20;;;6.10;;
57113;SDS011;42994;51.606;9.988;2023-06-01T12:13:51;7.47;;;6.68;;
57113;SDS011;42994;51.606;9.988;2023-06-01T12:16:18;8.95;;;7.10;;
57113;SDS011;42994;51.606;9.988;2023-06-01T12:18:45;10.40;;;5.95;;
57113;SDS011;42994;51.606;9.988;2023-06-01T12:21:12;11.63;;;5.70;;
57113;SDS011;42994;51.606;9.988;2023-06-01T12:23:39;8.07;;;5.40;;
57113;SDS011;42994;51.606;9.988;2023-06-01T12:26:08;7.63;;;6.25;;
57113;SDS011;42994;51.606;9.988;2023-06-01T12:28:47;8.07;;;5.80;;
57113;SDS011;42994;51.606;9.988;2023-06-01T12:31:16;8.40;;;5.97;;
57113;SDS011;42994;51.606;9.988;2023-06-01T12:33:43;10.82;;;7.13;;
57113;SDS011;42994;51.606;9.988;2023-06-01T12:36:27;7.97;;;5.47;;
57113;SDS011;42994;51.606;9.988;2023-06-01T12:38:56;10.63;;;6.82;;
57113;SDS011;42994;51.606;9.988;2023-06-01T12:41:25;9.45;;;6.25;;
57113;SDS011;42994;51.606;9.988;2023-06-01T12:43:54;11.48;;;7.07;;
57113;SDS011;42994;51.606;9.988;2023-06-01T12:46:22;11.80;;;7.93;;
57113;SDS011;42994;51.606;9.988;2023-06-01T12:48:50;10.88;;;6.32;;
57113;SDS011;42994;51.606;9.988;2023-06-01T12:51:19;15.30;;;7.82;;
57113;SDS011;42994;51.606;9.988;2023-06-01T12:53:46;9.05;;;6.97;;
57113;SDS011;42994;51.606;9.988;2023-06-01T12:56:13;14.35;;;8.70;;
57113;SDS011;42994;51.606;9.988;2023-06-01T12:58:41;16.55;;;7.47;;
57113;SDS011;42994;51.606;9.988;2023-06-01T13:01:08;14.80;;;8.32;;
57113;SDS011;42994;51.606;9.988;2023-06-01T13:03:36;12.75;;;7.50;;
57113;SDS011;42994;51.606;9.988;2023-06-01T13:06:03;11.00;;;7.15;;
57113;SDS011;42994;51.606;9.988;2023-06-01T13:08:30;15.70;;;9.45;;
57113;SDS011;42994;51.606;9.988;2023-06-01T13:10:57;13.25;;;8.50;;
57113;SDS011;42994;51.606;9.988;2023-06-01T13:13:23;10.52;;;8.10;;
57113;SDS011;42994;51.606;9.988;2023-06-01T13:15:51;15.75;;;9.35;;
57113;SDS011;42994;51.606;9.988;2023-06-01T13:18:18;22.17;;;10.48;;
57113;SDS011;42994;51.606;9.988;2023-06-01T13:20:44;14.68;;;9.85;;
57113;SDS011;42994;51.606;9.988;2023-06-01T13:23:11;12.23;;;8.90;;
57113;SDS011;42994;51.606;9.988;2023-06-01T13:25:38;16.67;;;9.32;;
57113;SDS011;42994;51.606;9.988;2023-06-01T13:28:05;13.68;;;10.50;;
57113;SDS011;42994;51.606;9.988;2023-06-01T13:30:33;13.90;;;9.73;;
57113;SDS011;42994;51.606;9.988;2023-06-01T13:33:01;12.57;;;8.68;;
57113;SDS011;42994;51.606;9.988;2023-06-01T13:35:28;15.85;;;9.05;;
57113;SDS011;42994;51.606;9.988;2023-06-01T13:37:55;11.90;;;9.15;;
57113;SDS011;42994;51.606;9.988;2023-06-01T13:40:21;15.77;;;10.60;;
57113;SDS011;42994;51.606;9.988;2023-06-01T13:42:49;12.77;;;9.45;;
57113;SDS011;42994;51.606;9.988;2023-06-01T13:45:16;17.48;;;9.23;;
57113;SDS011;42994;51.606;9.988;2023-06-01T13:47:43;12.13;;;9.60;;
57113;SDS011;42994;51.606;9.988;2023-06-01T13:50:12;15.25;;;9.48;;
57113;SDS011;42994;51.606;9.988;2023-06-01T13:52:39;16.13;;;9.57;;
57113;SDS011;42994;51.606;9.988;2023-06-01T13:55:06;15.02;;;9.57;;
57113;SDS011;42994;51.606;9.988;2023-06-01T13:57:34;15.50;;;9.30;;
57113;SDS011;42994;51.606;9.988;2023-06-01T14:00:02;12.52;;;8.68;;
57113;SDS011;42994;51.606;9.988;2023-06-01T14:02:31;13.95;;;9.23;;
57113;SDS011;42994;51.606;9.988;2023-06-01T14:04:58;17.30;;;9.52;;
57113;SDS011;42994;51.606;9.988;2023-06-01T14:07:26;15.60;;;9.13;;
57113;SDS011;42994;51.606;9.988;2023-06-01T14:09:53;13.77;;;9.02;;
57113;SDS011;42994;51.606;9.988;2023-06-01T14:12:20;14.35;;;8.88;;
57113;SDS011;42994;51.606;9.988;2023-06-01T14:14:47;16.58;;;9.38;;
57113;SDS011;42994;51.606;9.988;2023-06-01T14:17:13;13.40;;;8.68;;
57113;SDS011;42994;51.606;9.988;2023-06-01T14:19:40;13.40;;;8.63;;
57113;SDS011;42994;51.606;9.988;2023-06-01T14:22:07;11.07;;;8.43;;
57113;SDS011;42994;51.606;9.988;2023-06-01T14:24:35;11.50;;;8.25;;
57113;SDS011;42994;51.606;9.988;2023-06-01T14:27:02;14.52;;;8.43;;
57113;SDS011;42994;51.606;9.988;2023-06-01T14:29:29;9.40;;;7.53;;
57113;SDS011;42994;51.606;9.988;2023-06-01T14:31:55;15.77;;;7.95;;
57113;SDS011;42994;51.606;9.988;2023-06-01T14:34:22;12.20;;;7.50;;
57113;SDS011;42994;51.606;9.988;2023-06-01T14:36:49;9.75;;;7.47;;
57113;SDS011;42994;51.606;9.988;2023-06-01T14:39:16;10.93;;;7.20;;
57113;SDS011;42994;51.606;9.988;2023-06-01T14:41:44;11.85;;;7.53;;
57113;SDS011;42994;51.606;9.988;2023-06-01T14:44:10;12.43;;;6.45;;